sensor_id;sensor_type;location;lat;lon;timestamp;temperature;humidity
65582;DHT22;52231;40.090;18.348;2023-09-19T00:00:48;21.70;84.20
65582;DHT22;52231;40.090;18.348;2023-09-19T00:03:16;21.60;84.20
65582;DHT22;52231;40.090;18.348;2023-09-19T00:05:45;21.60;84.30
65582;DHT22;52231;40.090;18.348;2023-09-19T00:08:13;21.60;84.30
65582;DHT22;52231;40.090;18.348;2023-09-19T00:10:43;21.60;84.30
65582;DHT22;52231;40.090;18.348;2023-09-19T00:13:15;21.50;84.20
65582;DHT22;52231;40.090;18.348;2023-09-19T00:16:09;21.40;84.00
65582;DHT22;52231;40.090;18.348;2023-09-19T00:18:43;21.40;84.30
65582;DHT22;52231;40.090;18.348;2023-09-19T00:21:13;21.40;84.40
65582;DHT22;52231;40.090;18.348;2023-09-19T00:23:46;21.40;84.30
65582;DHT22;52231;40.090;18.348;2023-09-19T00:26:24;21.40;84.30
65582;DHT22;52231;40.090;18.348;2023-09-19T00:28:54;21.40;84.40
65582;DHT22;52231;40.090;18.348;2023-09-19T00:31:22;21.40;84.40
65582;DHT22;52231;40.090;18.348;2023-09-19T00:33:51;21.50;84.30
65582;DHT22;52231;40.090;18.348;2023-09-19T00:36:19;21.50;84.20
65582;DHT22;52231;40.090;18.348;2023-09-19T00:38:47;21.60;84.10
65582;DHT22;52231;40.090;18.348;2023-09-19T00:41:16;21.60;83.90
65582;DHT22;52231;40.090;18.348;2023-09-19T00:43:44;21.60;83.80
65582;DHT22;52231;40.090;18.348;2023-09-19T00:46:12;21.70;83.70
65582;DHT22;52231;40.090;18.348;2023-09-19T00:48:46;21.70;83.50
65582;DHT22;52231;40.090;18.348;2023-09-19T00:51:15;21.80;83.10
65582;DHT22;52231;40.090;18.348;2023-09-19T00:53:47;21.80;82.70
65582;DHT22;52231;40.090;18.348;2023-09-19T00:56:19;21.80;82.50
65582;DHT22;52231;40.090;18.348;2023-09-19T00:58:48;21.80;82.30
65582;DHT22;52231;40.090;18.348;2023-09-19T01:01:45;21.80;82.10
65582;DHT22;52231;40.090;18.348;2023-09-19T01:04:17;21.80;82.10
65582;DHT22;52231;40.090;18.348;2023-09-19T01:06:46;21.80;82.10
65582;DHT22;52231;40.090;18.348;2023-09-19T01:09:24;21.80;82.20
65582;DHT22;52231;40.090;18.348;2023-09-19T01:11:59;21.80;82.20
65582;DHT22;52231;40.090;18.348;2023-09-19T01:14:46;21.80;82.30
65582;DHT22;52231;40.090;18.348;2023-09-19T01:17:21;21.80;82.30
65582;DHT22;52231;40.090;18.348;2023-09-19T01:26:11;21.70;82.40
65582;DHT22;52231;40.090;18.348;2023-09-19T01:29:12;21.60;82.40
65582;DHT22;52231;40.090;18.348;2023-09-19T01:31:47;21.50;82.50
65582;DHT22;52231;40.090;18.348;2023-09-19T01:34:39;21.50;82.70
65582;DHT22;52231;40.090;18.348;2023-09-19T01:37:12;21.40;82.90
65582;DHT22;52231;40.090;18.348;2023-09-19T01:39:40;21.40;83.20
65582;DHT22;52231;40.090;18.348;2023-09-19T01:53:04;21.30;83.40
65582;DHT22;52231;40.090;18.348;2023-09-19T01:55:40;21.10;83.70
65582;DHT22;52231;40.090;18.348;2023-09-19T02:00:44;21.00;84.10
65582;DHT22;52231;40.090;18.348;2023-09-19T02:03:15;20.90;84.20
65582;DHT22;52231;40.090;18.348;2023-09-19T02:05:51;20.90;84.40
65582;DHT22;52231;40.090;18.348;2023-09-19T02:08:21;20.90;84.60
65582;DHT22;52231;40.090;18.348;2023-09-19T02:10:53;20.90;84.80
65582;DHT22;52231;40.090;18.348;2023-09-19T02:13:24;20.90;85.00
65582;DHT22;52231;40.090;18.348;2023-09-19T02:15:56;20.90;85.00
65582;DHT22;52231;40.090;18.348;2023-09-19T02:18:25;20.90;85.30
65582;DHT22;52231;40.090;18.348;2023-09-19T02:20:54;20.90;85.50
65582;DHT22;52231;40.090;18.348;2023-09-19T02:23:24;20.90;85.60
65582;DHT22;52231;40.090;18.348;2023-09-19T02:25:55;20.90;85.60
65582;DHT22;52231;40.090;18.348;2023-09-19T02:28:26;21.00;85.70
65582;DHT22;52231;40.090;18.348;2023-09-19T02:30:58;20.90;85.60
65582;DHT22;52231;40.090;18.348;2023-09-19T02:33:27;20.90;85.50
65582;DHT22;52231;40.090;18.348;2023-09-19T02:36:25;20.90;85.40
65582;DHT22;52231;40.090;18.348;2023-09-19T02:38:55;20.90;85.40
65582;DHT22;52231;40.090;18.348;2023-09-19T02:41:23;20.90;85.40
65582;DHT22;52231;40.090;18.348;2023-09-19T02:43:52;20.90;85.40
65582;DHT22;52231;40.090;18.348;2023-09-19T02:46:23;20.90;85.50
65582;DHT22;52231;40.090;18.348;2023-09-19T02:48:51;20.90;85.60
65582;DHT22;52231;40.090;18.348;2023-09-19T02:51:19;20.90;85.60
65582;DHT22;52231;40.090;18.348;2023-09-19T02:53:49;20.90;85.50
65582;DHT22;52231;40.090;18.348;2023-09-19T02:56:17;20.80;85.40
65582;DHT22;52231;40.090;18.348;2023-09-19T02:58:46;20.80;85.40
65582;DHT22;52231;40.090;18.348;2023-09-19T03:01:16;20.80;85.50
65582;DHT22;52231;40.090;18.348;2023-09-19T03:03:46;20.80;85.60
65582;DHT22;52231;40.090;18.348;2023-09-19T03:06:14;20.80;85.70
65582;DHT22;52231;40.090;18.348;2023-09-19T03:08:43;20.80;85.90
65582;DHT22;52231;40.090;18.348;2023-09-19T03:11:13;20.70;85.90
65582;DHT22;52231;40.090;18.348;2023-09-19T03:13:46;20.60;85.90
65582;DHT22;52231;40.090;18.348;2023-09-19T03:16:15;20.60;86.00
65582;DHT22;52231;40.090;18.348;2023-09-19T03:18:45;20.60;86.10
65582;DHT22;52231;40.090;18.348;2023-09-19T03:21:16;20.50;86.10
65582;DHT22;52231;40.090;18.348;2023-09-19T03:23:45;20.50;86.10
65582;DHT22;52231;40.090;18.348;2023-09-19T03:26:13;20.40;86.10
65582;DHT22;52231;40.090;18.348;2023-09-19T03:28:43;20.40;86.20
65582;DHT22;52231;40.090;18.348;2023-09-19T03:31:15;20.30;86.20
65582;DHT22;52231;40.090;18.348;2023-09-19T03:33:43;20.30;86.30
65582;DHT22;52231;40.090;18.348;2023-09-19T03:36:11;20.30;86.30
65582;DHT22;52231;40.090;18.348;2023-09-19T03:38:41;20.20;86.40
65582;DHT22;52231;40.090;18.348;2023-09-19T03:41:09;20.20;86.40
65582;DHT22;52231;40.090;18.348;2023-09-19T03:43:37;20.20;86.50
65582;DHT22;52231;40.090;18.348;2023-09-19T03:46:06;20.10;86.50
65582;DHT22;52231;40.090;18.348;2023-09-19T03:48:37;20.10;86.50
65582;DHT22;52231;40.090;18.348;2023-09-19T03:51:05;20.00;86.50
65582;DHT22;52231;40.090;18.348;2023-09-19T03:53:33;20.00;86.50
65582;DHT22;52231;40.090;18.348;2023-09-19T03:56:07;20.00;86.50
65582;DHT22;52231;40.090;18.348;2023-09-19T03:58:36;19.90;86.50
65582;DHT22;52231;40.090;18.348;2023-09-19T04:01:14;19.90;86.50
65582;DHT22;52231;40.090;18.348;2023-09-19T04:03:46;19.80;86.60
65582;DHT22;52231;40.090;18.348;2023-09-19T04:06:16;19.80;86.60
65582;DHT22;52231;40.090;18.348;2023-09-19T04:08:44;19.80;86.70
65582;DHT22;52231;40.090;18.348;2023-09-19T04:11:14;19.80;86.70
65582;DHT22;52231;40.090;18.348;2023-09-19T04:13:42;19.80;86.90
65582;DHT22;52231;40.090;18.348;2023-09-19T04:16:10;19.80;87.10
65582;DHT22;52231;40.090;18.348;2023-09-19T04:18:38;19.80;87.10
65582;DHT22;52231;40.090;18.348;2023-09-19T04:21:09;19.80;87.10
65582;DHT22;52231;40.090;18.348;2023-09-19T04:23:37;19.80;87.00
65582;DHT22;52231;40.090;18.348;2023-09-19T04:26:05;19.80;87.10
65582;DHT22;52231;40.090;18.348;2023-09-19T04:28:35;19.80;87.20
65582;DHT22;52231;40.090;18.348;2023-09-19T04:31:06;19.70;87.40
65582;DHT22;52231;40.090;18.348;2023-09-19T04:33:36;19.70;87.50
65582;DHT22;52231;40.090;18.348;2023-09-19T04:36:04;19.70;87.70
65582;DHT22;52231;40.090;18.348;2023-09-19T04:38:42;19.70;87.90
65582;DHT22;52231;40.090;18.348;2023-09-19T04:41:12;19.70;88.00
65582;DHT22;52231;40.090;18.348;2023-09-19T04:43:41;19.70;88.20
65582;DHT22;52231;40.090;18.348;2023-09-19T04:46:09;19.80;88.20
65582;DHT22;52231;40.090;18.348;2023-09-19T04:48:37;19.70;88.00
65582;DHT22;52231;40.090;18.348;2023-09-19T04:51:05;19.70;88.00
65582;DHT22;52231;40.090;18.348;2023-09-19T04:53:34;19.70;87.90
65582;DHT22;52231;40.090;18.348;2023-09-19T04:56:02;19.70;88.10
65582;DHT22;52231;40.090;18.348;2023-09-19T04:58:31;19.80;88.20
65582;DHT22;52231;40.090;18.348;2023-09-19T05:00:59;19.80;88.20
65582;DHT22;52231;40.090;18.348;2023-09-19T05:03:30;19.80;88.10
65582;DHT22;52231;40.090;18.348;2023-09-19T05:05:59;19.90;88.00
65582;DHT22;52231;40.090;18.348;2023-09-19T05:08:27;19.90;87.80
65582;DHT22;52231;40.090;18.348;2023-09-19T05:10:55;20.00;87.70
65582;DHT22;52231;40.090;18.348;2023-09-19T05:13:23;20.10;87.60
65582;DHT22;52231;40.090;18.348;2023-09-19T05:15:54;20.30;87.60
65582;DHT22;52231;40.090;18.348;2023-09-19T05:18:22;20.40;87.30
65582;DHT22;52231;40.090;18.348;2023-09-19T05:20:51;20.60;86.80
65582;DHT22;52231;40.090;18.348;2023-09-19T05:23:21;20.80;86.20
65582;DHT22;52231;40.090;18.348;2023-09-19T05:25:49;21.00;85.70
65582;DHT22;52231;40.090;18.348;2023-09-19T05:28:17;21.30;85.10
65582;DHT22;52231;40.090;18.348;2023-09-19T05:30:45;21.50;84.50
65582;DHT22;52231;40.090;18.348;2023-09-19T05:33:15;21.80;84.00
65582;DHT22;52231;40.090;18.348;2023-09-19T05:35:49;22.00;83.10
65582;DHT22;52231;40.090;18.348;2023-09-19T05:38:27;22.20;82.40
65582;DHT22;52231;40.090;18.348;2023-09-19T05:40:56;22.40;81.60
65582;DHT22;52231;40.090;18.348;2023-09-19T05:43:25;22.60;80.70
65582;DHT22;52231;40.090;18.348;2023-09-19T05:45:53;22.80;79.90
65582;DHT22;52231;40.090;18.348;2023-09-19T05:48:24;22.90;79.20
65582;DHT22;52231;40.090;18.348;2023-09-19T05:50:53;23.20;78.30
65582;DHT22;52231;40.090;18.348;2023-09-19T05:53:21;23.30;77.80
65582;DHT22;52231;40.090;18.348;2023-09-19T05:55:51;23.50;77.50
65582;DHT22;52231;40.090;18.348;2023-09-19T05:58:21;23.80;76.90
65582;DHT22;52231;40.090;18.348;2023-09-19T06:00:49;24.10;76.10
65582;DHT22;52231;40.090;18.348;2023-09-19T06:03:17;24.40;75.10
65582;DHT22;52231;40.090;18.348;2023-09-19T06:05:46;24.60;73.90
65582;DHT22;52231;40.090;18.348;2023-09-19T06:08:17;24.90;72.90
65582;DHT22;52231;40.090;18.348;2023-09-19T06:10:46;25.20;72.30
65582;DHT22;52231;40.090;18.348;2023-09-19T06:13:14;25.50;71.60
65582;DHT22;52231;40.090;18.348;2023-09-19T06:15:42;25.80;70.70
65582;DHT22;52231;40.090;18.348;2023-09-19T06:18:11;26.10;69.50
65582;DHT22;52231;40.090;18.348;2023-09-19T06:20:48;26.30;68.10
65582;DHT22;52231;40.090;18.348;2023-09-19T06:23:20;26.60;67.10
65582;DHT22;52231;40.090;18.348;2023-09-19T06:26:08;26.80;65.90
65582;DHT22;52231;40.090;18.348;2023-09-19T06:28:37;26.90;64.60
65582;DHT22;52231;40.090;18.348;2023-09-19T06:31:09;27.10;64.80
65582;DHT22;52231;40.090;18.348;2023-09-19T06:33:38;27.30;63.90
65582;DHT22;52231;40.090;18.348;2023-09-19T06:36:11;27.60;63.00
65582;DHT22;52231;40.090;18.348;2023-09-19T06:38:39;27.90;62.20
65582;DHT22;52231;40.090;18.348;2023-09-19T06:41:08;28.20;61.20
65582;DHT22;52231;40.090;18.348;2023-09-19T06:43:37;28.30;60.40
65582;DHT22;52231;40.090;18.348;2023-09-19T06:46:05;28.50;59.50
65582;DHT22;52231;40.090;18.348;2023-09-19T06:48:35;28.80;58.50
65582;DHT22;52231;40.090;18.348;2023-09-19T06:51:03;28.90;57.00
65582;DHT22;52231;40.090;18.348;2023-09-19T06:53:33;29.00;56.80
65582;DHT22;52231;40.090;18.348;2023-09-19T06:56:03;29.10;55.60
65582;DHT22;52231;40.090;18.348;2023-09-19T06:58:32;29.30;54.60
65582;DHT22;52231;40.090;18.348;2023-09-19T07:01:00;29.50;52.50
65582;DHT22;52231;40.090;18.348;2023-09-19T07:03:28;29.80;51.40
65582;DHT22;52231;40.090;18.348;2023-09-19T07:05:56;29.90;50.20
65582;DHT22;52231;40.090;18.348;2023-09-19T07:08:26;30.00;49.20
65582;DHT22;52231;40.090;18.348;2023-09-19T07:10:56;30.10;47.70
65582;DHT22;52231;40.090;18.348;2023-09-19T07:13:24;30.10;46.90
65582;DHT22;52231;40.090;18.348;2023-09-19T07:15:53;30.20;46.70
65582;DHT22;52231;40.090;18.348;2023-09-19T07:18:22;30.30;46.40
65582;DHT22;52231;40.090;18.348;2023-09-19T07:25:22;30.80;44.70
65582;DHT22;52231;40.090;18.348;2023-09-19T07:32:40;31.60;41.40
65582;DHT22;52231;40.090;18.348;2023-09-19T07:35:08;31.90;38.80
65582;DHT22;52231;40.090;18.348;2023-09-19T07:37:37;32.00;38.60
65582;DHT22;52231;40.090;18.348;2023-09-19T07:40:08;32.30;38.70
65582;DHT22;52231;40.090;18.348;2023-09-19T07:42:40;32.50;39.00
65582;DHT22;52231;40.090;18.348;2023-09-19T07:45:09;32.70;38.70
65582;DHT22;52231;40.090;18.348;2023-09-19T07:47:37;32.90;38.10
65582;DHT22;52231;40.090;18.348;2023-09-19T07:50:06;33.00;37.50
65582;DHT22;52231;40.090;18.348;2023-09-19T07:52:35;33.20;37.20
65582;DHT22;52231;40.090;18.348;2023-09-19T07:55:03;33.40;36.70
65582;DHT22;52231;40.090;18.348;2023-09-19T07:57:35;33.40;36.50
65582;DHT22;52231;40.090;18.348;2023-09-19T08:00:04;33.60;36.50
65582;DHT22;52231;40.090;18.348;2023-09-19T08:02:43;33.80;36.40
65582;DHT22;52231;40.090;18.348;2023-09-19T08:05:12;33.90;35.90
65582;DHT22;52231;40.090;18.348;2023-09-19T08:07:44;34.10;35.80
65582;DHT22;52231;40.090;18.348;2023-09-19T08:10:20;34.30;35.60
65582;DHT22;52231;40.090;18.348;2023-09-19T08:12:49;34.30;35.30
65582;DHT22;52231;40.090;18.348;2023-09-19T08:15:24;34.60;35.30
65582;DHT22;52231;40.090;18.348;2023-09-19T08:17:52;34.70;35.90
65582;DHT22;52231;40.090;18.348;2023-09-19T08:20:20;34.60;38.00
65582;DHT22;52231;40.090;18.348;2023-09-19T08:22:52;34.40;40.00
65582;DHT22;52231;40.090;18.348;2023-09-19T08:25:23;34.30;41.00
65582;DHT22;52231;40.090;18.348;2023-09-19T08:31:16;34.30;41.90
65582;DHT22;52231;40.090;18.348;2023-09-19T08:33:45;34.30;42.40
65582;DHT22;52231;40.090;18.348;2023-09-19T08:36:17;34.40;42.60
65582;DHT22;52231;40.090;18.348;2023-09-19T08:38:45;34.50;42.10
65582;DHT22;52231;40.090;18.348;2023-09-19T08:41:13;34.60;41.80
65582;DHT22;52231;40.090;18.348;2023-09-19T08:43:41;34.60;41.40
65582;DHT22;52231;40.090;18.348;2023-09-19T08:50:19;34.80;41.40
65582;DHT22;52231;40.090;18.348;2023-09-19T08:52:52;35.00;41.40
65582;DHT22;52231;40.090;18.348;2023-09-19T08:55:27;35.00;40.50
65582;DHT22;52231;40.090;18.348;2023-09-19T08:58:00;35.00;40.50
65582;DHT22;52231;40.090;18.348;2023-09-19T09:00:30;35.10;40.60
65582;DHT22;52231;40.090;18.348;2023-09-19T09:02:59;34.90;42.00
65582;DHT22;52231;40.090;18.348;2023-09-19T09:05:29;34.90;42.50
65582;DHT22;52231;40.090;18.348;2023-09-19T09:07:58;34.80;42.20
65582;DHT22;52231;40.090;18.348;2023-09-19T09:10:28;34.80;42.10
65582;DHT22;52231;40.090;18.348;2023-09-19T09:12:58;34.90;41.50
65582;DHT22;52231;40.090;18.348;2023-09-19T09:15:28;34.90;40.50
65582;DHT22;52231;40.090;18.348;2023-09-19T09:17:57;35.10;40.40
65582;DHT22;52231;40.090;18.348;2023-09-19T09:20:26;35.40;39.30
65582;DHT22;52231;40.090;18.348;2023-09-19T09:22:55;35.50;38.30
65582;DHT22;52231;40.090;18.348;2023-09-19T09:25:53;35.40;38.10
65582;DHT22;52231;40.090;18.348;2023-09-19T09:28:26;35.50;37.80
65582;DHT22;52231;40.090;18.348;2023-09-19T09:30:56;35.60;37.40
65582;DHT22;52231;40.090;18.348;2023-09-19T09:33:26;35.30;37.20
65582;DHT22;52231;40.090;18.348;2023-09-19T09:35:59;35.30;37.20
65582;DHT22;52231;40.090;18.348;2023-09-19T09:38:44;35.40;37.50
65582;DHT22;52231;40.090;18.348;2023-09-19T09:45:44;35.40;38.50
65582;DHT22;52231;40.090;18.348;2023-09-19T09:48:24;35.70;38.10
65582;DHT22;52231;40.090;18.348;2023-09-19T09:50:59;35.90;38.00
65582;DHT22;52231;40.090;18.348;2023-09-19T09:53:31;36.20;37.50
65582;DHT22;52231;40.090;18.348;2023-09-19T09:56:06;36.30;38.00
65582;DHT22;52231;40.090;18.348;2023-09-19T09:58:51;36.10;38.20
65582;DHT22;52231;40.090;18.348;2023-09-19T10:01:23;35.90;37.50
65582;DHT22;52231;40.090;18.348;2023-09-19T10:03:58;36.00;37.80
65582;DHT22;52231;40.090;18.348;2023-09-19T10:06:26;35.90;38.20
65582;DHT22;52231;40.090;18.348;2023-09-19T10:09:08;35.80;39.30
65582;DHT22;52231;40.090;18.348;2023-09-19T10:11:44;35.70;40.00
65582;DHT22;52231;40.090;18.348;2023-09-19T10:14:15;35.70;40.60
65582;DHT22;52231;40.090;18.348;2023-09-19T10:16:48;35.70;40.10
65582;DHT22;52231;40.090;18.348;2023-09-19T10:19:30;35.80;39.00
65582;DHT22;52231;40.090;18.348;2023-09-19T10:22:02;35.80;38.40
65582;DHT22;52231;40.090;18.348;2023-09-19T10:24:34;35.70;39.00
65582;DHT22;52231;40.090;18.348;2023-09-19T10:27:07;35.70;37.10
65582;DHT22;52231;40.090;18.348;2023-09-19T10:29:39;35.70;38.60
65582;DHT22;52231;40.090;18.348;2023-09-19T10:32:08;35.50;39.20
65582;DHT22;52231;40.090;18.348;2023-09-19T10:34:37;35.40;38.80
65582;DHT22;52231;40.090;18.348;2023-09-19T10:37:12;35.40;39.10
65582;DHT22;52231;40.090;18.348;2023-09-19T10:39:41;35.30;38.90
65582;DHT22;52231;40.090;18.348;2023-09-19T10:42:18;35.30;40.50
65582;DHT22;52231;40.090;18.348;2023-09-19T10:44:52;35.10;39.90
65582;DHT22;52231;40.090;18.348;2023-09-19T10:47:26;35.20;39.60
65582;DHT22;52231;40.090;18.348;2023-09-19T10:49:55;35.10;40.00
65582;DHT22;52231;40.090;18.348;2023-09-19T10:52:25;35.20;40.30
65582;DHT22;52231;40.090;18.348;2023-09-19T10:54:56;35.40;39.10
65582;DHT22;52231;40.090;18.348;2023-09-19T10:57:27;35.40;37.80
65582;DHT22;52231;40.090;18.348;2023-09-19T11:00:06;35.40;38.50
65582;DHT22;52231;40.090;18.348;2023-09-19T11:05:43;35.40;37.90
65582;DHT22;52231;40.090;18.348;2023-09-19T11:08:11;35.40;37.90
65582;DHT22;52231;40.090;18.348;2023-09-19T11:10:48;35.50;36.70
65582;DHT22;52231;40.090;18.348;2023-09-19T11:13:29;35.70;36.50
65582;DHT22;52231;40.090;18.348;2023-09-19T11:16:04;35.70;37.00
65582;DHT22;52231;40.090;18.348;2023-09-19T11:26:50;35.80;36.60
65582;DHT22;52231;40.090;18.348;2023-09-19T11:29:32;35.80;37.00
65582;DHT22;52231;40.090;18.348;2023-09-19T11:32:01;35.80;37.90
65582;DHT22;52231;40.090;18.348;2023-09-19T11:40:09;36.00;36.80
65582;DHT22;52231;40.090;18.348;2023-09-19T11:42:48;35.90;37.00
65582;DHT22;52231;40.090;18.348;2023-09-19T11:48:14;36.20;37.60
65582;DHT22;52231;40.090;18.348;2023-09-19T11:50:44;36.10;37.60
65582;DHT22;52231;40.090;18.348;2023-09-19T11:53:13;36.30;38.30
65582;DHT22;52231;40.090;18.348;2023-09-19T11:55:41;36.30;38.80
65582;DHT22;52231;40.090;18.348;2023-09-19T11:58:15;36.30;38.70
65582;DHT22;52231;40.090;18.348;2023-09-19T12:00:45;36.20;38.70
65582;DHT22;52231;40.090;18.348;2023-09-19T12:03:19;35.90;39.50
65582;DHT22;52231;40.090;18.348;2023-09-19T12:06:13;35.80;40.10
65582;DHT22;52231;40.090;18.348;2023-09-19T12:08:50;35.70;40.10
65582;DHT22;52231;40.090;18.348;2023-09-19T12:11:30;35.70;41.20
65582;DHT22;52231;40.090;18.348;2023-09-19T12:14:27;35.50;40.70
65582;DHT22;52231;40.090;18.348;2023-09-19T12:17:13;35.40;41.70
65582;DHT22;52231;40.090;18.348;2023-09-19T12:20:06;35.40;41.40
65582;DHT22;52231;40.090;18.348;2023-09-19T12:23:16;35.40;41.40
65582;DHT22;52231;40.090;18.348;2023-09-19T12:26:23;35.50;41.40
65582;DHT22;52231;40.090;18.348;2023-09-19T12:28:59;35.40;41.80
65582;DHT22;52231;40.090;18.348;2023-09-19T12:31:59;35.30;42.60
65582;DHT22;52231;40.090;18.348;2023-09-19T12:34:41;35.10;43.80
65582;DHT22;52231;40.090;18.348;2023-09-19T12:37:22;35.30;43.70
65582;DHT22;52231;40.090;18.348;2023-09-19T12:40:07;35.40;43.30
65582;DHT22;52231;40.090;18.348;2023-09-19T12:43:02;35.00;43.70
65582;DHT22;52231;40.090;18.348;2023-09-19T12:45:42;34.90;44.30
65582;DHT22;52231;40.090;18.348;2023-09-19T12:48:26;34.80;44.70
65582;DHT22;52231;40.090;18.348;2023-09-19T12:51:14;34.90;45.10
65582;DHT22;52231;40.090;18.348;2023-09-19T12:53:58;34.60;45.60
65582;DHT22;52231;40.090;18.348;2023-09-19T12:56:46;34.60;45.60
65582;DHT22;52231;40.090;18.348;2023-09-19T12:59:34;34.60;45.90
65582;DHT22;52231;40.090;18.348;2023-09-19T13:02:11;34.80;46.50
65582;DHT22;52231;40.090;18.348;2023-09-19T13:05:15;35.00;46.40
65582;DHT22;52231;40.090;18.348;2023-09-19T13:08:18;35.10;45.40
65582;DHT22;52231;40.090;18.348;2023-09-19T13:11:13;34.90;45.40
65582;DHT22;52231;40.090;18.348;2023-09-19T13:14:18;34.90;45.30
65582;DHT22;52231;40.090;18.348;2023-09-19T13:17:03;34.80;45.30
65582;DHT22;52231;40.090;18.348;2023-09-19T13:19:41;34.70;44.90
65582;DHT22;52231;40.090;18.348;2023-09-19T13:25:34;34.60;45.10
65582;DHT22;52231;40.090;18.348;2023-09-19T13:28:17;34.60;45.60
65582;DHT22;52231;40.090;18.348;2023-09-19T13:30:49;34.80;45.50
65582;DHT22;52231;40.090;18.348;2023-09-19T13:33:19;35.10;42.50
65582;DHT22;52231;40.090;18.348;2023-09-19T13:35:48;35.30;38.80
65582;DHT22;52231;40.090;18.348;2023-09-19T13:38:17;35.50;37.80
65582;DHT22;52231;40.090;18.348;2023-09-19T13:40:46;35.70;37.80
65582;DHT22;52231;40.090;18.348;2023-09-19T13:43:19;35.70;38.00
65582;DHT22;52231;40.090;18.348;2023-09-19T13:45:57;35.70;38.30
65582;DHT22;52231;40.090;18.348;2023-09-19T13:48:27;35.80;38.80
65582;DHT22;52231;40.090;18.348;2023-09-19T13:51:17;35.70;39.10
65582;DHT22;52231;40.090;18.348;2023-09-19T13:53:47;35.60;39.20
65582;DHT22;52231;40.090;18.348;2023-09-19T13:56:16;35.40;39.40
65582;DHT22;52231;40.090;18.348;2023-09-19T13:58:47;35.30;39.40
65582;DHT22;52231;40.090;18.348;2023-09-19T14:01:16;35.20;39.40
65582;DHT22;52231;40.090;18.348;2023-09-19T14:03:44;35.00;38.90
65582;DHT22;52231;40.090;18.348;2023-09-19T14:06:16;34.90;39.10
65582;DHT22;52231;40.090;18.348;2023-09-19T14:08:45;34.80;38.70
65582;DHT22;52231;40.090;18.348;2023-09-19T14:11:36;34.80;38.90
65582;DHT22;52231;40.090;18.348;2023-09-19T14:14:05;34.80;38.50
65582;DHT22;52231;40.090;18.348;2023-09-19T14:16:38;34.70;38.10
65582;DHT22;52231;40.090;18.348;2023-09-19T14:19:09;34.60;38.50
65582;DHT22;52231;40.090;18.348;2023-09-19T14:21:40;34.50;38.50
65582;DHT22;52231;40.090;18.348;2023-09-19T14:24:17;34.40;38.60
65582;DHT22;52231;40.090;18.348;2023-09-19T14:26:49;34.40;38.80
65582;DHT22;52231;40.090;18.348;2023-09-19T14:29:21;34.40;39.20
65582;DHT22;52231;40.090;18.348;2023-09-19T14:31:53;34.20;39.70
65582;DHT22;52231;40.090;18.348;2023-09-19T14:34:24;34.00;40.00
65582;DHT22;52231;40.090;18.348;2023-09-19T14:36:56;33.90;40.20
65582;DHT22;52231;40.090;18.348;2023-09-19T14:39:26;33.90;40.10
65582;DHT22;52231;40.090;18.348;2023-09-19T14:41:57;33.90;40.00
65582;DHT22;52231;40.090;18.348;2023-09-19T14:44:29;34.00;40.20
65582;DHT22;52231;40.090;18.348;2023-09-19T14:47:02;34.00;40.30
65582;DHT22;52231;40.090;18.348;2023-09-19T14:49:35;33.90;40.30
65582;DHT22;52231;40.090;18.348;2023-09-19T14:52:29;33.90;40.50
65582;DHT22;52231;40.090;18.348;2023-09-19T14:55:00;33.80;40.60
65582;DHT22;52231;40.090;18.348;2023-09-19T14:57:31;33.70;40.90
65582;DHT22;52231;40.090;18.348;2023-09-19T15:04:34;33.50;41.00
65582;DHT22;52231;40.090;18.348;2023-09-19T15:07:23;33.30;41.80
65582;DHT22;52231;40.090;18.348;2023-09-19T15:09:54;33.00;42.40
65582;DHT22;52231;40.090;18.348;2023-09-19T15:12:26;32.90;42.90
65582;DHT22;52231;40.090;18.348;2023-09-19T15:14:58;32.90;42.50
65582;DHT22;52231;40.090;18.348;2023-09-19T15:17:28;32.90;42.70
65582;DHT22;52231;40.090;18.348;2023-09-19T15:19:57;32.80;43.30
65582;DHT22;52231;40.090;18.348;2023-09-19T15:22:26;32.70;43.80
65582;DHT22;52231;40.090;18.348;2023-09-19T15:24:55;32.60;43.70
65582;DHT22;52231;40.090;18.348;2023-09-19T15:27:25;32.50;43.80
65582;DHT22;52231;40.090;18.348;2023-09-19T15:29:54;32.50;44.10
65582;DHT22;52231;40.090;18.348;2023-09-19T15:32:24;32.50;44.10
65582;DHT22;52231;40.090;18.348;2023-09-19T15:34:53;32.50;44.20
65582;DHT22;52231;40.090;18.348;2023-09-19T15:37:22;32.30;44.00
65582;DHT22;52231;40.090;18.348;2023-09-19T15:39:50;32.20;44.70
65582;DHT22;52231;40.090;18.348;2023-09-19T15:42:19;32.00;45.40
65582;DHT22;52231;40.090;18.348;2023-09-19T15:44:48;31.80;45.60
65582;DHT22;52231;40.090;18.348;2023-09-19T15:47:19;31.70;45.80
65582;DHT22;52231;40.090;18.348;2023-09-19T15:49:48;31.60;46.00
65582;DHT22;52231;40.090;18.348;2023-09-19T15:52:17;31.40;46.70
65582;DHT22;52231;40.090;18.348;2023-09-19T15:54:46;31.20;47.20
65582;DHT22;52231;40.090;18.348;2023-09-19T15:57:15;31.00;47.60
65582;DHT22;52231;40.090;18.348;2023-09-19T15:59:43;30.80;48.00
65582;DHT22;52231;40.090;18.348;2023-09-19T16:02:12;30.70;48.60
65582;DHT22;52231;40.090;18.348;2023-09-19T16:04:41;30.60;48.40
65582;DHT22;52231;40.090;18.348;2023-09-19T16:07:11;30.30;49.00
65582;DHT22;52231;40.090;18.348;2023-09-19T16:09:40;30.30;49.40
65582;DHT22;52231;40.090;18.348;2023-09-19T16:12:08;30.10;49.70
65582;DHT22;52231;40.090;18.348;2023-09-19T16:14:37;30.00;49.70
65582;DHT22;52231;40.090;18.348;2023-09-19T16:17:06;29.80;50.40
65582;DHT22;52231;40.090;18.348;2023-09-19T16:19:41;29.70;51.00
65582;DHT22;52231;40.090;18.348;2023-09-19T16:22:10;29.50;50.40
65582;DHT22;52231;40.090;18.348;2023-09-19T16:24:39;29.40;50.70
65582;DHT22;52231;40.090;18.348;2023-09-19T16:27:08;29.30;51.40
65582;DHT22;52231;40.090;18.348;2023-09-19T16:29:37;29.10;52.00
65582;DHT22;52231;40.090;18.348;2023-09-19T16:32:05;29.00;52.50
65582;DHT22;52231;40.090;18.348;2023-09-19T16:34:33;28.90;53.10
65582;DHT22;52231;40.090;18.348;2023-09-19T16:37:02;28.80;53.10
65582;DHT22;52231;40.090;18.348;2023-09-19T16:39:30;28.80;53.30
65582;DHT22;52231;40.090;18.348;2023-09-19T16:41:58;28.60;53.80
65582;DHT22;52231;40.090;18.348;2023-09-19T16:44:28;28.50;54.70
65582;DHT22;52231;40.090;18.348;2023-09-19T16:46:57;28.40;55.20
65582;DHT22;52231;40.090;18.348;2023-09-19T16:49:26;28.30;55.80
65582;DHT22;52231;40.090;18.348;2023-09-19T16:51:54;28.20;56.30
65582;DHT22;52231;40.090;18.348;2023-09-19T16:54:22;28.10;56.90
65582;DHT22;52231;40.090;18.348;2023-09-19T16:56:51;28.00;57.30